Погода Алашна неделю

Южно-Казахстанская область, Казахстан

25 - 31 июля
  • 25июля
    Сегодня
    +26°
    +39°
    Практически безоблачно
    ВремяПогодаТемператураВлажностьДавлениеВетер, м/сВероятность осадков
    02:00Ясно и безоблачно+29°C28 %711 мм5.6 м/с2 %
    05:00Ясно и безоблачно+26°C32 %711 мм5.1 м/с2 %
    08:00Ясно и безоблачно+33°C22 %712 мм2.0 м/с2 %
    11:00Ясно и безоблачно+36°C15 %713 мм2.5 м/с2 %
    14:00Практически безоблачно+38°C13 %712 мм2.8 м/с2 %
    17:00Практически безоблачно+37°C13 %712 мм4.4 м/с2 %
    20:00Ясно и безоблачно+32°C19 %712 мм1.8 м/с2 %
    23:00Ясно и безоблачно+30°C23 %711 мм4.5 м/с2 %
  • 26июля
    Пятница
    +23°
    +38°
    Практически безоблачно
    ВремяПогодаТемператураВлажностьДавлениеВетер, м/сВероятность осадков
    02:00Ясно и безоблачно+28°C22 %711 мм3.0 м/с2 %
    05:00Ясно и безоблачно+27°C23 %711 мм2.4 м/с2 %
    08:00Ясно и безоблачно+31°C21 %713 мм3.4 м/с2 %
    11:00Ясно и безоблачно+35°C17 %714 мм2.6 м/с2 %
    14:00Практически безоблачно+37°C19 %714 мм6.1 м/с2 %
    17:00Ясно и безоблачно+36°C22 %715 мм5.7 м/с2 %
    20:00Ясно и безоблачно+31°C24 %715 мм4.2 м/с2 %
    23:00Ясно и безоблачно+27°C24 %716 мм3.8 м/с2 %
  • 27июля
    Суббота
    +25°
    +38°
    Ясно и безоблачно
    ВремяПогодаТемператураВлажностьДавлениеВетер, м/сВероятность осадков
    02:00Ясно и безоблачно+24°C30 %715 мм4.1 м/с2 %
    05:00Ясно и безоблачно+24°C31 %716 мм5.3 м/с2 %
    08:00Ясно и безоблачно+30°C21 %717 мм2.8 м/с2 %
    11:00Ясно и безоблачно+34°C16 %718 мм0.7 м/с2 %
    14:00Ясно и безоблачно+37°C11 %717 мм1.4 м/с2 %
    17:00Ясно и безоблачно+37°C8 %716 мм2.3 м/с2 %
    20:00Ясно и безоблачно+34°C9 %716 мм0.4 м/с2 %
    23:00Ясно и безоблачно+29°C20 %716 мм6.6 м/с2 %
  • 28июля
    Воскресенье
    +23°
    +38°
    Ясно и безоблачно
    ВремяПогодаТемператураВлажностьДавлениеВетер, м/сВероятность осадков
    02:00Ясно и безоблачно+28°C19 %716 мм6.6 м/с2 %
    05:00Ясно и безоблачно+26°C22 %716 мм5.6 м/с2 %
    08:00Ясно и безоблачно+32°C18 %718 мм4.3 м/с2 %
    11:00Ясно и безоблачно+36°C15 %719 мм0.9 м/с2 %
    14:00Ясно и безоблачно+37°C13 %718 мм1.7 м/с2 %
    17:00Ясно и безоблачно+37°C14 %717 мм2.3 м/с2 %
    20:00Ясно и безоблачно+32°C16 %717 мм5.3 м/с2 %
    23:00Ясно и безоблачно+29°C21 %717 мм7.0 м/с2 %
  • 29июля
    Понедельник
    +23°
    +37°
    Ясно и безоблачно
    ВремяПогодаТемператураВлажностьДавлениеВетер, м/сВероятность осадков
    02:00Ясно и безоблачно+27°C18 %717 мм7.0 м/с2 %
    05:00Ясно и безоблачно+24°C21 %717 мм6.0 м/с2 %
    08:00Ясно и безоблачно+30°C17 %718 мм3.7 м/с2 %
    11:00Ясно и безоблачно+34°C15 %718 мм0.8 м/с2 %
    14:00Ясно и безоблачно+37°C13 %718 мм1.8 м/с2 %
    17:00Небольшая облачность+36°C13 %717 мм2.6 м/с2 %
    20:00Ясно и безоблачно+31°C15 %717 мм6.8 м/с2 %
    23:00Ясно и безоблачно+28°C16 %717 мм7.2 м/с2 %
Мы используем cookies
Соглашаюсь